Main page
METAR-TAF:

METAR-TAF

Airports :

Hale County Airport

Plainview, Texas, United States

latitude: 34-10-05N, longitude: 101-43-02W, elevation: 3372 ft

Current weather observation

The report was made 13 minutes ago, at 20:55 UTC
Wind 9 mph from the Southwest
Temperature 57°F
Humidity 44%
Pressure 30.20 in. Hg
Visibility: 10 miles
Clear sky

METAR: KPVW 212055Z AUTO 23008KT 10SM CLR 14/02 A3020 RMK AO2 T01350024

Time: 15:08 (21:08 UTC)

Forecast

The report was made 3 hours and 33 minutes ago, at 17:35 UTC
Forecast valid from 21 at 18 UTC to 22 at 18 UTC
Wind 12 mph from the Southwest
Visibility: 6 miles
Scattered clouds at a height of 10000 ft
Broken clouds at a height of 16000 ft
From 22 at 0000 UTC
Wind 5 mph from the South
Visibility: 6 miles
Few clouds at a height of 20000 ft

TAF: KPVW 211735Z 2118/2218 22010KT P6SM SCT100 BKN160 FM220000 18004KT P6SM FEW200

Weather observations and forecasts of more than 4000 airports (METAR and TAF reports).

The available stations are represented by yellow and red dots on the map.

Hover mouse over dot to see the name of the station.

Then click to see weather observations and forecasts.

To change the map : click on the green buttons with a black cross to zoom in, on the green button with a dash to zoom out, or on the green arrows for adjacent maps.


METAR-TAF: